sensor_id;sensor_type;location;lat;lon;timestamp;P1;durP1;ratioP1;P2;durP2;ratioP2
76612;SDS011;65507;48.454;-2.058;2022-12-07T00:00:55;30.58;;;12.30;;
76612;SDS011;65507;48.454;-2.058;2022-12-07T00:03:30;27.83;;;11.25;;
76612;SDS011;65507;48.454;-2.058;2022-12-07T00:05:58;24.33;;;11.27;;
76612;SDS011;65507;48.454;-2.058;2022-12-07T00:08:25;24.65;;;11.32;;
76612;SDS011;65507;48.454;-2.058;2022-12-07T00:10:51;25.27;;;11.27;;
76612;SDS011;65507;48.454;-2.058;2022-12-07T00:13:16;25.90;;;12.18;;
76612;SDS011;65507;48.454;-2.058;2022-12-07T00:15:42;27.98;;;11.30;;
76612;SDS011;65507;48.454;-2.058;2022-12-07T00:18:08;28.17;;;12.63;;
76612;SDS011;65507;48.454;-2.058;2022-12-07T00:20:34;27.02;;;11.65;;
76612;SDS011;65507;48.454;-2.058;2022-12-07T00:22:59;25.20;;;12.27;;
76612;SDS011;65507;48.454;-2.058;2022-12-07T00:25:25;27.48;;;13.30;;
76612;SDS011;65507;48.454;-2.058;2022-12-07T00:27:54;30.40;;;12.32;;
76612;SDS011;65507;48.454;-2.058;2022-12-07T00:30:21;27.33;;;12.95;;
76612;SDS011;65507;48.454;-2.058;2022-12-07T00:32:48;23.13;;;11.30;;
76612;SDS011;65507;48.454;-2.058;2022-12-07T00:35:14;26.02;;;11.25;;
76612;SDS011;65507;48.454;-2.058;2022-12-07T00:37:40;27.00;;;11.93;;
76612;SDS011;65507;48.454;-2.058;2022-12-07T00:40:06;30.95;;;11.95;;
76612;SDS011;65507;48.454;-2.058;2022-12-07T00:42:32;24.60;;;10.98;;
76612;SDS011;65507;48.454;-2.058;2022-12-07T00:44:58;27.33;;;11.15;;
76612;SDS011;65507;48.454;-2.058;2022-12-07T00:47:23;28.02;;;12.55;;
76612;SDS011;65507;48.454;-2.058;2022-12-07T00:49:52;25.90;;;10.82;;
76612;SDS011;65507;48.454;-2.058;2022-12-07T00:52:18;25.10;;;10.93;;
76612;SDS011;65507;48.454;-2.058;2022-12-07T00:54:44;27.13;;;11.90;;
76612;SDS011;65507;48.454;-2.058;2022-12-07T00:57:09;28.10;;;12.57;;
76612;SDS011;65507;48.454;-2.058;2022-12-07T00:59:35;30.33;;;12.27;;
76612;SDS011;65507;48.454;-2.058;2022-12-07T01:02:01;22.08;;;11.77;;
76612;SDS011;65507;48.454;-2.058;2022-12-07T01:04:26;26.50;;;12.02;;
76612;SDS011;65507;48.454;-2.058;2022-12-07T01:06:52;26.58;;;10.60;;
76612;SDS011;65507;48.454;-2.058;2022-12-07T01:09:18;27.27;;;11.73;;
76612;SDS011;65507;48.454;-2.058;2022-12-07T01:11:44;27.00;;;12.02;;
76612;SDS011;65507;48.454;-2.058;2022-12-07T01:14:09;28.52;;;11.45;;
76612;SDS011;65507;48.454;-2.058;2022-12-07T01:16:35;25.98;;;10.85;;
76612;SDS011;65507;48.454;-2.058;2022-12-07T01:19:01;30.20;;;11.65;;
76612;SDS011;65507;48.454;-2.058;2022-12-07T01:21:30;22.92;;;9.95;;
76612;SDS011;65507;48.454;-2.058;2022-12-07T01:24:03;22.58;;;9.85;;
76612;SDS011;65507;48.454;-2.058;2022-12-07T01:26:30;28.25;;;10.77;;
76612;SDS011;65507;48.454;-2.058;2022-12-07T01:28:56;23.13;;;10.02;;
76612;SDS011;65507;48.454;-2.058;2022-12-07T01:33:51;24.20;;;9.85;;
76612;SDS011;65507;48.454;-2.058;2022-12-07T01:38:47;26.33;;;10.80;;
76612;SDS011;65507;48.454;-2.058;2022-12-07T01:41:16;27.38;;;10.35;;
76612;SDS011;65507;48.454;-2.058;2022-12-07T01:46:46;28.17;;;11.18;;
76612;SDS011;65507;48.454;-2.058;2022-12-07T01:49:25;23.30;;;10.13;;
76612;SDS011;65507;48.454;-2.058;2022-12-07T01:52:00;26.70;;;10.50;;
76612;SDS011;65507;48.454;-2.058;2022-12-07T01:54:46;29.90;;;12.35;;
76612;SDS011;65507;48.454;-2.058;2022-12-07T01:57:14;24.52;;;10.77;;
76612;SDS011;65507;48.454;-2.058;2022-12-07T01:59:42;22.75;;;9.65;;
76612;SDS011;65507;48.454;-2.058;2022-12-07T02:02:26;29.05;;;10.93;;
76612;SDS011;65507;48.454;-2.058;2022-12-07T02:04:57;30.45;;;11.00;;
76612;SDS011;65507;48.454;-2.058;2022-12-07T02:07:24;25.92;;;10.98;;
76612;SDS011;65507;48.454;-2.058;2022-12-07T02:09:52;28.98;;;11.65;;
76612;SDS011;65507;48.454;-2.058;2022-12-07T02:12:19;29.13;;;10.85;;
76612;SDS011;65507;48.454;-2.058;2022-12-07T02:14:45;27.08;;;11.35;;
76612;SDS011;65507;48.454;-2.058;2022-12-07T02:17:21;24.05;;;10.48;;
76612;SDS011;65507;48.454;-2.058;2022-12-07T02:25:47;24.35;;;11.25;;
76612;SDS011;65507;48.454;-2.058;2022-12-07T02:27:53;25.05;;;10.40;;
76612;SDS011;65507;48.454;-2.058;2022-12-07T02:30:28;24.73;;;10.75;;
76612;SDS011;65507;48.454;-2.058;2022-12-07T02:33:05;24.13;;;10.18;;
76612;SDS011;65507;48.454;-2.058;2022-12-07T02:35:46;26.42;;;10.43;;
76612;SDS011;65507;48.454;-2.058;2022-12-07T02:38:14;24.13;;;11.02;;
76612;SDS011;65507;48.454;-2.058;2022-12-07T02:40:50;24.63;;;10.15;;
76612;SDS011;65507;48.454;-2.058;2022-12-07T02:43:26;28.02;;;10.30;;
76612;SDS011;65507;48.454;-2.058;2022-12-07T02:45:57;29.75;;;11.50;;
76612;SDS011;65507;48.454;-2.058;2022-12-07T02:48:27;25.10;;;10.63;;
76612;SDS011;65507;48.454;-2.058;2022-12-07T02:50:54;27.13;;;11.60;;
76612;SDS011;65507;48.454;-2.058;2022-12-07T02:53:53;24.30;;;9.93;;
76612;SDS011;65507;48.454;-2.058;2022-12-07T02:56:24;25.02;;;10.38;;
76612;SDS011;65507;48.454;-2.058;2022-12-07T03:07:11;19.80;;;9.18;;
76612;SDS011;65507;48.454;-2.058;2022-12-07T03:09:51;24.20;;;10.48;;
76612;SDS011;65507;48.454;-2.058;2022-12-07T03:12:35;22.42;;;9.85;;
76612;SDS011;65507;48.454;-2.058;2022-12-07T03:15:13;20.52;;;9.73;;
76612;SDS011;65507;48.454;-2.058;2022-12-07T03:17:43;24.63;;;9.45;;
76612;SDS011;65507;48.454;-2.058;2022-12-07T03:20:11;23.05;;;8.85;;
76612;SDS011;65507;48.454;-2.058;2022-12-07T03:22:40;22.42;;;9.38;;
76612;SDS011;65507;48.454;-2.058;2022-12-07T03:25:10;20.02;;;9.63;;
76612;SDS011;65507;48.454;-2.058;2022-12-07T03:27:46;22.60;;;9.43;;
76612;SDS011;65507;48.454;-2.058;2022-12-07T03:30:21;22.90;;;9.25;;
76612;SDS011;65507;48.454;-2.058;2022-12-07T03:33:03;28.23;;;9.32;;
76612;SDS011;65507;48.454;-2.058;2022-12-07T03:35:40;23.38;;;9.18;;
76612;SDS011;65507;48.454;-2.058;2022-12-07T03:38:18;24.23;;;9.32;;
76612;SDS011;65507;48.454;-2.058;2022-12-07T03:45:56;18.67;;;7.68;;
76612;SDS011;65507;48.454;-2.058;2022-12-07T03:48:41;21.77;;;9.48;;
76612;SDS011;65507;48.454;-2.058;2022-12-07T03:52:02;26.92;;;10.20;;
76612;SDS011;65507;48.454;-2.058;2022-12-07T03:56:41;23.15;;;10.23;;
76612;SDS011;65507;48.454;-2.058;2022-12-07T03:59:08;22.75;;;9.45;;
76612;SDS011;65507;48.454;-2.058;2022-12-07T04:01:35;23.45;;;10.40;;
76612;SDS011;65507;48.454;-2.058;2022-12-07T04:04:01;21.70;;;9.48;;
76612;SDS011;65507;48.454;-2.058;2022-12-07T04:06:27;23.20;;;10.23;;
76612;SDS011;65507;48.454;-2.058;2022-12-07T04:08:53;22.52;;;8.90;;
76612;SDS011;65507;48.454;-2.058;2022-12-07T04:11:18;23.13;;;9.77;;
76612;SDS011;65507;48.454;-2.058;2022-12-07T04:13:44;21.55;;;8.80;;
76612;SDS011;65507;48.454;-2.058;2022-12-07T04:16:29;22.50;;;9.55;;
76612;SDS011;65507;48.454;-2.058;2022-12-07T04:18:54;23.63;;;10.05;;
76612;SDS011;65507;48.454;-2.058;2022-12-07T04:21:20;21.27;;;9.20;;
76612;SDS011;65507;48.454;-2.058;2022-12-07T04:23:46;19.83;;;8.40;;
76612;SDS011;65507;48.454;-2.058;2022-12-07T04:26:11;19.52;;;8.38;;
76612;SDS011;65507;48.454;-2.058;2022-12-07T04:28:37;19.95;;;9.35;;
76612;SDS011;65507;48.454;-2.058;2022-12-07T04:31:03;21.13;;;8.90;;
76612;SDS011;65507;48.454;-2.058;2022-12-07T04:33:28;23.00;;;9.70;;
76612;SDS011;65507;48.454;-2.058;2022-12-07T04:35:54;23.10;;;9.25;;
76612;SDS011;65507;48.454;-2.058;2022-12-07T04:38:20;21.35;;;8.57;;
76612;SDS011;65507;48.454;-2.058;2022-12-07T04:40:46;25.63;;;9.10;;
76612;SDS011;65507;48.454;-2.058;2022-12-07T04:43:11;21.83;;;8.95;;
76612;SDS011;65507;48.454;-2.058;2022-12-07T04:45:37;21.23;;;8.60;;
76612;SDS011;65507;48.454;-2.058;2022-12-07T04:48:03;23.27;;;9.57;;
76612;SDS011;65507;48.454;-2.058;2022-12-07T04:50:28;19.48;;;8.02;;
76612;SDS011;65507;48.454;-2.058;2022-12-07T04:52:54;20.95;;;8.55;;
76612;SDS011;65507;48.454;-2.058;2022-12-07T04:55:20;21.67;;;9.02;;
76612;SDS011;65507;48.454;-2.058;2022-12-07T04:57:46;20.75;;;9.15;;
76612;SDS011;65507;48.454;-2.058;2022-12-07T05:00:11;22.00;;;8.82;;
76612;SDS011;65507;48.454;-2.058;2022-12-07T05:02:37;19.27;;;8.85;;
76612;SDS011;65507;48.454;-2.058;2022-12-07T05:05:03;20.77;;;8.45;;
76612;SDS011;65507;48.454;-2.058;2022-12-07T05:07:29;21.70;;;8.98;;
76612;SDS011;65507;48.454;-2.058;2022-12-07T05:09:54;21.52;;;9.13;;
76612;SDS011;65507;48.454;-2.058;2022-12-07T05:12:20;23.27;;;9.65;;
76612;SDS011;65507;48.454;-2.058;2022-12-07T05:14:46;21.60;;;8.73;;
76612;SDS011;65507;48.454;-2.058;2022-12-07T05:17:11;20.80;;;8.45;;
76612;SDS011;65507;48.454;-2.058;2022-12-07T05:19:37;20.25;;;7.97;;
76612;SDS011;65507;48.454;-2.058;2022-12-07T05:22:03;21.75;;;8.45;;
76612;SDS011;65507;48.454;-2.058;2022-12-07T05:24:28;22.17;;;8.43;;
76612;SDS011;65507;48.454;-2.058;2022-12-07T05:26:54;19.67;;;8.70;;
76612;SDS011;65507;48.454;-2.058;2022-12-07T05:29:20;21.42;;;8.98;;
76612;SDS011;65507;48.454;-2.058;2022-12-07T05:31:46;23.20;;;8.80;;
76612;SDS011;65507;48.454;-2.058;2022-12-07T05:34:14;19.67;;;8.38;;
76612;SDS011;65507;48.454;-2.058;2022-12-07T05:36:40;22.02;;;9.25;;
76612;SDS011;65507;48.454;-2.058;2022-12-07T05:39:06;23.00;;;9.38;;
76612;SDS011;65507;48.454;-2.058;2022-12-07T05:41:32;20.02;;;7.72;;
76612;SDS011;65507;48.454;-2.058;2022-12-07T05:44:16;20.25;;;8.10;;
76612;SDS011;65507;48.454;-2.058;2022-12-07T05:46:42;19.60;;;8.07;;
76612;SDS011;65507;48.454;-2.058;2022-12-07T05:49:08;26.10;;;8.90;;
76612;SDS011;65507;48.454;-2.058;2022-12-07T05:51:33;20.77;;;8.88;;
76612;SDS011;65507;48.454;-2.058;2022-12-07T05:53:59;18.85;;;9.10;;
76612;SDS011;65507;48.454;-2.058;2022-12-07T05:56:25;19.77;;;8.25;;
76612;SDS011;65507;48.454;-2.058;2022-12-07T05:58:51;20.92;;;8.63;;
76612;SDS011;65507;48.454;-2.058;2022-12-07T06:01:40;18.58;;;7.93;;
76612;SDS011;65507;48.454;-2.058;2022-12-07T06:04:06;18.40;;;8.30;;
76612;SDS011;65507;48.454;-2.058;2022-12-07T06:06:32;20.70;;;8.48;;
76612;SDS011;65507;48.454;-2.058;2022-12-07T06:08:58;21.65;;;8.52;;
76612;SDS011;65507;48.454;-2.058;2022-12-07T06:11:23;22.42;;;8.35;;
76612;SDS011;65507;48.454;-2.058;2022-12-07T06:14:08;21.25;;;8.48;;
76612;SDS011;65507;48.454;-2.058;2022-12-07T06:16:34;22.17;;;9.15;;
76612;SDS011;65507;48.454;-2.058;2022-12-07T06:18:59;20.90;;;8.48;;
76612;SDS011;65507;48.454;-2.058;2022-12-07T06:21:25;21.67;;;8.95;;
76612;SDS011;65507;48.454;-2.058;2022-12-07T06:23:51;19.13;;;8.18;;
76612;SDS011;65507;48.454;-2.058;2022-12-07T06:26:17;20.88;;;7.97;;
76612;SDS011;65507;48.454;-2.058;2022-12-07T06:28:43;19.35;;;8.77;;
76612;SDS011;65507;48.454;-2.058;2022-12-07T06:31:09;22.60;;;8.98;;
76612;SDS011;65507;48.454;-2.058;2022-12-07T06:33:35;22.95;;;8.50;;
76612;SDS011;65507;48.454;-2.058;2022-12-07T06:36:00;22.38;;;9.00;;
76612;SDS011;65507;48.454;-2.058;2022-12-07T06:38:26;20.55;;;8.98;;
76612;SDS011;65507;48.454;-2.058;2022-12-07T06:40:52;23.70;;;9.45;;
76612;SDS011;65507;48.454;-2.058;2022-12-07T06:43:17;22.13;;;10.10;;
76612;SDS011;65507;48.454;-2.058;2022-12-07T06:45:43;20.08;;;8.43;;
76612;SDS011;65507;48.454;-2.058;2022-12-07T06:48:09;19.30;;;8.85;;
76612;SDS011;65507;48.454;-2.058;2022-12-07T06:50:35;21.70;;;9.02;;
76612;SDS011;65507;48.454;-2.058;2022-12-07T06:53:01;23.33;;;9.05;;
76612;SDS011;65507;48.454;-2.058;2022-12-07T06:55:26;21.60;;;9.40;;
76612;SDS011;65507;48.454;-2.058;2022-12-07T06:57:52;25.58;;;11.30;;
76612;SDS011;65507;48.454;-2.058;2022-12-07T07:00:18;20.27;;;9.13;;
76612;SDS011;65507;48.454;-2.058;2022-12-07T07:02:44;26.90;;;11.82;;
76612;SDS011;65507;48.454;-2.058;2022-12-07T07:05:10;23.02;;;10.27;;
76612;SDS011;65507;48.454;-2.058;2022-12-07T07:07:35;21.92;;;9.13;;
76612;SDS011;65507;48.454;-2.058;2022-12-07T07:10:01;20.98;;;8.75;;
76612;SDS011;65507;48.454;-2.058;2022-12-07T07:12:27;20.38;;;8.60;;
76612;SDS011;65507;48.454;-2.058;2022-12-07T07:14:53;18.00;;;8.35;;
76612;SDS011;65507;48.454;-2.058;2022-12-07T07:17:18;20.30;;;7.65;;
76612;SDS011;65507;48.454;-2.058;2022-12-07T07:19:44;17.05;;;7.22;;
76612;SDS011;65507;48.454;-2.058;2022-12-07T07:22:10;19.60;;;8.70;;
76612;SDS011;65507;48.454;-2.058;2022-12-07T07:24:35;18.60;;;8.43;;
76612;SDS011;65507;48.454;-2.058;2022-12-07T07:27:01;21.50;;;8.88;;
76612;SDS011;65507;48.454;-2.058;2022-12-07T07:29:27;23.08;;;8.63;;
76612;SDS011;65507;48.454;-2.058;2022-12-07T07:31:53;19.48;;;8.20;;
76612;SDS011;65507;48.454;-2.058;2022-12-07T07:34:18;23.42;;;8.90;;
76612;SDS011;65507;48.454;-2.058;2022-12-07T07:36:44;26.23;;;10.10;;
76612;SDS011;65507;48.454;-2.058;2022-12-07T07:39:10;23.02;;;9.38;;
76612;SDS011;65507;48.454;-2.058;2022-12-07T07:41:37;20.10;;;9.07;;
76612;SDS011;65507;48.454;-2.058;2022-12-07T07:44:03;20.15;;;9.50;;
76612;SDS011;65507;48.454;-2.058;2022-12-07T07:46:29;22.35;;;9.35;;
76612;SDS011;65507;48.454;-2.058;2022-12-07T07:48:55;25.92;;;9.88;;
76612;SDS011;65507;48.454;-2.058;2022-12-07T07:51:21;21.88;;;9.10;;
76612;SDS011;65507;48.454;-2.058;2022-12-07T07:53:47;21.92;;;9.57;;
76612;SDS011;65507;48.454;-2.058;2022-12-07T07:56:12;25.73;;;9.95;;
76612;SDS011;65507;48.454;-2.058;2022-12-07T07:58:38;21.60;;;9.55;;
76612;SDS011;65507;48.454;-2.058;2022-12-07T08:01:05;24.52;;;9.55;;
76612;SDS011;65507;48.454;-2.058;2022-12-07T08:03:31;24.75;;;10.30;;
76612;SDS011;65507;48.454;-2.058;2022-12-07T08:05:57;23.15;;;9.20;;
76612;SDS011;65507;48.454;-2.058;2022-12-07T08:08:26;24.27;;;10.30;;
76612;SDS011;65507;48.454;-2.058;2022-12-07T08:10:51;22.42;;;9.48;;
76612;SDS011;65507;48.454;-2.058;2022-12-07T08:13:17;24.50;;;9.82;;
76612;SDS011;65507;48.454;-2.058;2022-12-07T08:15:44;22.35;;;10.45;;
76612;SDS011;65507;48.454;-2.058;2022-12-07T08:18:12;23.27;;;10.00;;
76612;SDS011;65507;48.454;-2.058;2022-12-07T08:20:40;23.58;;;9.95;;
76612;SDS011;65507;48.454;-2.058;2022-12-07T08:23:06;27.70;;;10.80;;
76612;SDS011;65507;48.454;-2.058;2022-12-07T08:25:33;28.13;;;9.90;;
76612;SDS011;65507;48.454;-2.058;2022-12-07T08:27:59;23.60;;;9.05;;
76612;SDS011;65507;48.454;-2.058;2022-12-07T08:30:26;22.95;;;10.80;;
76612;SDS011;65507;48.454;-2.058;2022-12-07T08:32:53;26.38;;;10.55;;
76612;SDS011;65507;48.454;-2.058;2022-12-07T08:35:18;25.63;;;10.90;;
76612;SDS011;65507;48.454;-2.058;2022-12-07T08:37:44;24.98;;;9.80;;
76612;SDS011;65507;48.454;-2.058;2022-12-07T08:40:11;23.83;;;9.73;;
76612;SDS011;65507;48.454;-2.058;2022-12-07T08:42:47;22.20;;;9.82;;
76612;SDS011;65507;48.454;-2.058;2022-12-07T08:45:14;25.83;;;10.57;;
76612;SDS011;65507;48.454;-2.058;2022-12-07T08:47:43;24.13;;;10.02;;
76612;SDS011;65507;48.454;-2.058;2022-12-07T08:50:27;24.75;;;10.43;;
76612;SDS011;65507;48.454;-2.058;2022-12-07T08:52:54;25.83;;;11.23;;
76612;SDS011;65507;48.454;-2.058;2022-12-07T08:55:22;26.85;;;9.55;;
76612;SDS011;65507;48.454;-2.058;2022-12-07T08:57:48;26.23;;;10.88;;
76612;SDS011;65507;48.454;-2.058;2022-12-07T09:00:14;25.15;;;9.20;;
76612;SDS011;65507;48.454;-2.058;2022-12-07T09:02:44;24.50;;;9.95;;
76612;SDS011;65507;48.454;-2.058;2022-12-07T09:05:11;24.45;;;11.30;;
76612;SDS011;65507;48.454;-2.058;2022-12-07T09:07:39;24.23;;;10.25;;
76612;SDS011;65507;48.454;-2.058;2022-12-07T09:10:07;21.48;;;8.98;;
76612;SDS011;65507;48.454;-2.058;2022-12-07T09:12:33;20.95;;;9.85;;
76612;SDS011;65507;48.454;-2.058;2022-12-07T09:14:59;22.23;;;8.45;;
76612;SDS011;65507;48.454;-2.058;2022-12-07T09:17:26;23.48;;;9.85;;
76612;SDS011;65507;48.454;-2.058;2022-12-07T09:19:51;22.60;;;8.52;;
76612;SDS011;65507;48.454;-2.058;2022-12-07T09:22:17;26.17;;;9.77;;
76612;SDS011;65507;48.454;-2.058;2022-12-07T09:24:43;22.60;;;8.45;;
76612;SDS011;65507;48.454;-2.058;2022-12-07T09:27:10;21.60;;;9.90;;
76612;SDS011;65507;48.454;-2.058;2022-12-07T09:29:37;24.00;;;10.63;;
76612;SDS011;65507;48.454;-2.058;2022-12-07T09:32:02;27.63;;;10.77;;
76612;SDS011;65507;48.454;-2.058;2022-12-07T09:34:30;21.83;;;9.15;;
76612;SDS011;65507;48.454;-2.058;2022-12-07T09:36:57;22.48;;;9.60;;
76612;SDS011;65507;48.454;-2.058;2022-12-07T09:39:23;26.17;;;10.77;;
76612;SDS011;65507;48.454;-2.058;2022-12-07T09:41:49;25.45;;;10.82;;
76612;SDS011;65507;48.454;-2.058;2022-12-07T09:44:18;23.55;;;10.45;;
76612;SDS011;65507;48.454;-2.058;2022-12-07T09:46:48;22.15;;;10.57;;
76612;SDS011;65507;48.454;-2.058;2022-12-07T09:49:19;28.38;;;11.93;;
76612;SDS011;65507;48.454;-2.058;2022-12-07T09:51:47;29.33;;;12.25;;
76612;SDS011;65507;48.454;-2.058;2022-12-07T09:54:24;27.17;;;11.48;;
76612;SDS011;65507;48.454;-2.058;2022-12-07T09:56:49;27.27;;;11.88;;
76612;SDS011;65507;48.454;-2.058;2022-12-07T09:59:18;29.85;;;10.98;;
76612;SDS011;65507;48.454;-2.058;2022-12-07T10:01:47;25.23;;;10.60;;
76612;SDS011;65507;48.454;-2.058;2022-12-07T10:04:24;24.00;;;9.98;;
76612;SDS011;65507;48.454;-2.058;2022-12-07T10:06:51;23.05;;;10.00;;
76612;SDS011;65507;48.454;-2.058;2022-12-07T10:09:20;27.50;;;12.82;;
76612;SDS011;65507;48.454;-2.058;2022-12-07T10:14:34;20.73;;;9.60;;
76612;SDS011;65507;48.454;-2.058;2022-12-07T10:17:02;22.50;;;9.95;;
76612;SDS011;65507;48.454;-2.058;2022-12-07T10:19:48;31.30;;;13.68;;
76612;SDS011;65507;48.454;-2.058;2022-12-07T10:22:14;24.05;;;9.52;;
76612;SDS011;65507;48.454;-2.058;2022-12-07T10:24:42;24.00;;;9.35;;
76612;SDS011;65507;48.454;-2.058;2022-12-07T10:29:51;22.15;;;9.02;;
76612;SDS011;65507;48.454;-2.058;2022-12-07T10:34:44;21.63;;;9.25;;
76612;SDS011;65507;48.454;-2.058;2022-12-07T10:39:45;22.65;;;8.52;;
76612;SDS011;65507;48.454;-2.058;2022-12-07T10:42:34;22.25;;;8.95;;
76612;SDS011;65507;48.454;-2.058;2022-12-07T10:45:34;20.42;;;7.97;;
76612;SDS011;65507;48.454;-2.058;2022-12-07T10:56:11;22.08;;;9.02;;
76612;SDS011;65507;48.454;-2.058;2022-12-07T11:01:42;32.15;;;12.35;;
76612;SDS011;65507;48.454;-2.058;2022-12-07T11:13:07;17.90;;;8.63;;
76612;SDS011;65507;48.454;-2.058;2022-12-07T11:15:21;20.45;;;8.93;;
76612;SDS011;65507;48.454;-2.058;2022-12-07T11:18:24;18.92;;;9.00;;
76612;SDS011;65507;48.454;-2.058;2022-12-07T11:26:30;18.52;;;9.00;;
76612;SDS011;65507;48.454;-2.058;2022-12-07T11:37:16;19.17;;;9.38;;
76612;SDS011;65507;48.454;-2.058;2022-12-07T11:39:49;20.20;;;8.98;;
76612;SDS011;65507;48.454;-2.058;2022-12-07T11:42:30;21.67;;;10.45;;
76612;SDS011;65507;48.454;-2.058;2022-12-07T11:45:10;22.77;;;11.25;;
76612;SDS011;65507;48.454;-2.058;2022-12-07T11:48:02;22.10;;;9.65;;
76612;SDS011;65507;48.454;-2.058;2022-12-07T11:53:26;19.83;;;8.65;;
76612;SDS011;65507;48.454;-2.058;2022-12-07T11:56:19;18.42;;;8.70;;
76612;SDS011;65507;48.454;-2.058;2022-12-07T12:03:45;14.18;;;7.10;;
76612;SDS011;65507;48.454;-2.058;2022-12-07T12:06:13;14.35;;;7.00;;
76612;SDS011;65507;48.454;-2.058;2022-12-07T12:08:41;13.50;;;6.30;;
76612;SDS011;65507;48.454;-2.058;2022-12-07T12:11:27;12.20;;;5.80;;
76612;SDS011;65507;48.454;-2.058;2022-12-07T12:22:24;13.32;;;6.60;;
76612;SDS011;65507;48.454;-2.058;2022-12-07T12:25:06;15.75;;;6.72;;
76612;SDS011;65507;48.454;-2.058;2022-12-07T12:27:42;15.60;;;7.00;;
76612;SDS011;65507;48.454;-2.058;2022-12-07T12:30:29;12.50;;;5.70;;
76612;SDS011;65507;48.454;-2.058;2022-12-07T12:33:04;13.18;;;6.35;;
76612;SDS011;65507;48.454;-2.058;2022-12-07T12:35:37;12.23;;;5.85;;
76612;SDS011;65507;48.454;-2.058;2022-12-07T12:40:51;14.30;;;5.55;;
76612;SDS011;65507;48.454;-2.058;2022-12-07T12:48:54;7.97;;;3.15;;
76612;SDS011;65507;48.454;-2.058;2022-12-07T12:51:40;8.57;;;4.78;;
76612;SDS011;65507;48.454;-2.058;2022-12-07T12:54:26;9.90;;;5.57;;
76612;SDS011;65507;48.454;-2.058;2022-12-07T12:57:01;7.47;;;3.77;;
76612;SDS011;65507;48.454;-2.058;2022-12-07T13:13:03;8.70;;;4.22;;
76612;SDS011;65507;48.454;-2.058;2022-12-07T13:15:51;6.60;;;3.60;;
76612;SDS011;65507;48.454;-2.058;2022-12-07T13:23:26;5.93;;;3.13;;
76612;SDS011;65507;48.454;-2.058;2022-12-07T13:28:52;10.05;;;4.43;;
76612;SDS011;65507;48.454;-2.058;2022-12-07T13:34:00;8.43;;;4.30;;
76612;SDS011;65507;48.454;-2.058;2022-12-07T13:36:32;9.55;;;4.65;;
76612;SDS011;65507;48.454;-2.058;2022-12-07T13:41:41;8.73;;;3.53;;
76612;SDS011;65507;48.454;-2.058;2022-12-07T13:47:36;8.07;;;3.67;;
76612;SDS011;65507;48.454;-2.058;2022-12-07T13:49:38;6.45;;;3.13;;
76612;SDS011;65507;48.454;-2.058;2022-12-07T13:54:49;6.88;;;3.05;;
76612;SDS011;65507;48.454;-2.058;2022-12-07T13:57:26;7.85;;;3.22;;
76612;SDS011;65507;48.454;-2.058;2022-12-07T13:59:55;6.88;;;2.60;;
76612;SDS011;65507;48.454;-2.058;2022-12-07T14:02:27;5.57;;;2.75;;
76612;SDS011;65507;48.454;-2.058;2022-12-07T14:05:12;5.10;;;2.67;;
76612;SDS011;65507;48.454;-2.058;2022-12-07T14:07:57;5.05;;;3.20;;
76612;SDS011;65507;48.454;-2.058;2022-12-07T14:10:36;6.47;;;3.05;;
76612;SDS011;65507;48.454;-2.058;2022-12-07T14:15:54;8.02;;;4.00;;
76612;SDS011;65507;48.454;-2.058;2022-12-07T14:23:40;7.57;;;3.83;;
76612;SDS011;65507;48.454;-2.058;2022-12-07T14:28:44;8.23;;;4.15;;
76612;SDS011;65507;48.454;-2.058;2022-12-07T14:31:14;10.00;;;4.97;;
76612;SDS011;65507;48.454;-2.058;2022-12-07T14:33:46;9.18;;;4.10;;
76612;SDS011;65507;48.454;-2.058;2022-12-07T14:36:12;6.82;;;3.72;;
76612;SDS011;65507;48.454;-2.058;2022-12-07T14:38:39;9.77;;;4.43;;
76612;SDS011;65507;48.454;-2.058;2022-12-07T14:41:06;7.45;;;4.25;;
76612;SDS011;65507;48.454;-2.058;2022-12-07T14:43:57;10.90;;;4.68;;
76612;SDS011;65507;48.454;-2.058;2022-12-07T14:46:23;9.20;;;4.43;;
76612;SDS011;65507;48.454;-2.058;2022-12-07T14:48:48;11.23;;;4.80;;
76612;SDS011;65507;48.454;-2.058;2022-12-07T14:51:14;7.57;;;4.07;;
76612;SDS011;65507;48.454;-2.058;2022-12-07T14:53:42;12.65;;;4.68;;
76612;SDS011;65507;48.454;-2.058;2022-12-07T14:56:13;8.48;;;4.20;;
76612;SDS011;65507;48.454;-2.058;2022-12-07T14:58:39;8.57;;;4.50;;
76612;SDS011;65507;48.454;-2.058;2022-12-07T15:01:05;9.98;;;4.38;;
76612;SDS011;65507;48.454;-2.058;2022-12-07T15:03:31;9.70;;;4.22;;
76612;SDS011;65507;48.454;-2.058;2022-12-07T15:05:59;10.18;;;4.68;;
76612;SDS011;65507;48.454;-2.058;2022-12-07T15:08:26;9.45;;;4.30;;
76612;SDS011;65507;48.454;-2.058;2022-12-07T15:10:52;8.20;;;4.53;;
76612;SDS011;65507;48.454;-2.058;2022-12-07T15:13:18;8.95;;;4.20;;
76612;SDS011;65507;48.454;-2.058;2022-12-07T15:16:02;8.95;;;4.03;;
76612;SDS011;65507;48.454;-2.058;2022-12-07T15:18:28;9.38;;;4.28;;
76612;SDS011;65507;48.454;-2.058;2022-12-07T15:20:53;8.43;;;4.55;;
76612;SDS011;65507;48.454;-2.058;2022-12-07T15:23:19;9.15;;;4.85;;
76612;SDS011;65507;48.454;-2.058;2022-12-07T15:25:46;7.35;;;4.30;;
76612;SDS011;65507;48.454;-2.058;2022-12-07T15:28:13;6.63;;;3.72;;
76612;SDS011;65507;48.454;-2.058;2022-12-07T15:30:40;11.50;;;4.13;;
76612;SDS011;65507;48.454;-2.058;2022-12-07T15:33:08;8.68;;;3.83;;
76612;SDS011;65507;48.454;-2.058;2022-12-07T15:35:38;9.35;;;4.15;;
76612;SDS011;65507;48.454;-2.058;2022-12-07T15:38:10;8.07;;;4.10;;
76612;SDS011;65507;48.454;-2.058;2022-12-07T15:40:36;9.00;;;4.00;;
76612;SDS011;65507;48.454;-2.058;2022-12-07T15:43:02;6.88;;;3.80;;
76612;SDS011;65507;48.454;-2.058;2022-12-07T15:45:28;6.63;;;3.50;;
76612;SDS011;65507;48.454;-2.058;2022-12-07T15:47:54;10.20;;;3.83;;
76612;SDS011;65507;48.454;-2.058;2022-12-07T15:50:20;6.90;;;3.58;;
76612;SDS011;65507;48.454;-2.058;2022-12-07T15:52:47;10.65;;;5.20;;
76612;SDS011;65507;48.454;-2.058;2022-12-07T15:55:13;11.80;;;4.78;;
76612;SDS011;65507;48.454;-2.058;2022-12-07T15:57:39;10.65;;;4.88;;
76612;SDS011;65507;48.454;-2.058;2022-12-07T16:00:06;10.73;;;5.18;;
76612;SDS011;65507;48.454;-2.058;2022-12-07T16:02:34;12.15;;;4.55;;
76612;SDS011;65507;48.454;-2.058;2022-12-07T16:05:01;8.57;;;4.15;;
76612;SDS011;65507;48.454;-2.058;2022-12-07T16:07:26;9.13;;;4.68;;
76612;SDS011;65507;48.454;-2.058;2022-12-07T16:09:52;10.18;;;5.40;;
76612;SDS011;65507;48.454;-2.058;2022-12-07T16:12:18;9.85;;;4.75;;
76612;SDS011;65507;48.454;-2.058;2022-12-07T16:14:43;11.95;;;4.90;;
76612;SDS011;65507;48.454;-2.058;2022-12-07T16:17:10;9.05;;;4.57;;
76612;SDS011;65507;48.454;-2.058;2022-12-07T16:19:36;12.93;;;4.97;;
76612;SDS011;65507;48.454;-2.058;2022-12-07T16:22:03;9.50;;;5.60;;
76612;SDS011;65507;48.454;-2.058;2022-12-07T16:24:29;8.27;;;4.78;;
76612;SDS011;65507;48.454;-2.058;2022-12-07T16:26:55;8.98;;;4.65;;
76612;SDS011;65507;48.454;-2.058;2022-12-07T16:29:22;9.68;;;4.80;;
76612;SDS011;65507;48.454;-2.058;2022-12-07T16:31:48;9.23;;;5.38;;
76612;SDS011;65507;48.454;-2.058;2022-12-07T16:34:14;11.85;;;5.85;;
76612;SDS011;65507;48.454;-2.058;2022-12-07T16:36:40;11.18;;;6.03;;
76612;SDS011;65507;48.454;-2.058;2022-12-07T16:39:06;16.20;;;6.15;;
76612;SDS011;65507;48.454;-2.058;2022-12-07T16:41:33;12.30;;;5.88;;
76612;SDS011;65507;48.454;-2.058;2022-12-07T16:44:03;17.52;;;7.47;;
76612;SDS011;65507;48.454;-2.058;2022-12-07T16:46:33;13.35;;;6.80;;
76612;SDS011;65507;48.454;-2.058;2022-12-07T16:49:00;12.38;;;6.40;;
76612;SDS011;65507;48.454;-2.058;2022-12-07T16:51:26;13.25;;;7.10;;
76612;SDS011;65507;48.454;-2.058;2022-12-07T16:53:52;16.48;;;9.00;;